Terminal Aerodrome Forecast
Issued by NWS Tuscon, AZ

Home | Current Version | Previous Version | Text Only | Print | Product List | Glossary On
Versions: 1 2 3 4 5 6 7 8 9 10 11 12 13
000
FTUS45 KTWC 252300
TAFTUS
TAF
KTUS 252336Z 2600/2624 35008KT P6SM SKC
     FM260130 VRB04KT P6SM SKC
     FM260800 13009KT P6SM SKC
     FM262100 03008KT P6SM SKC=

USA.gov is the U.S. government's official web portal to all federal, state and local government web resources and services.